Time;durP1;ratioP1;P1;durP2;ratioP2;P2;SDS_P1;SDS_P2;PMS_P1;PMS_P2;Temp;Humidity;BMP_temperature;BMP_pressure;BME280_temperature;BME280_humidity;BME280_pressure;Samples;Min_cycle;Max_cycle;Signal;HPM_P1;HPM_P2
2022/08/22 00:02:31;;;;;;;4.97;2.70;;;;;;;21.71;60.76;101581.38;6010668;29;20242;-74
2022/08/22 00:06:07;;;;;;;5.55;2.88;;;;;;;21.64;61.00;101574.94;6009046;29;20238;-74
2022/08/22 00:09:35;;;;;;;6.25;2.92;;;;;;;21.65;61.25;101575.81;6006771;29;20246;-74
2022/08/22 00:13:03;;;;;;;7.43;3.05;;;;;;;21.64;61.19;101576.84;6007276;29;20237;-74
2022/08/22 00:16:31;;;;;;;5.43;2.83;;;;;;;21.64;61.28;101574.94;6002835;29;20320;-74
2022/08/22 00:19:57;;;;;;;8.93;3.17;;;;;;;21.71;61.03;101586.88;6008156;29;20234;-73
2022/08/22 00:23:27;;;;;;;7.80;3.08;;;;;;;21.69;61.59;101593.59;6006104;29;20242;-73
2022/08/22 00:26:54;;;;;;;7.75;3.10;;;;;;;21.65;61.44;101595.00;6009911;29;20600;-74
2022/08/22 00:30:17;;;;;;;8.35;3.67;;;;;;;21.76;60.63;101594.53;6008657;29;20337;-73
2022/08/22 00:33:44;;;;;;;9.15;3.85;;;;;;;21.66;61.23;101597.56;6007312;29;20776;-73
2022/08/22 00:37:15;;;;;;;6.25;2.88;;;;;;;21.63;61.13;101597.97;6006505;29;20249;-74
2022/08/22 00:40:54;;;;;;;7.78;3.22;;;;;;;21.45;62.04;101602.97;6004397;29;20490;-75
2022/08/22 00:44:54;;;;;;;5.43;3.22;;;;;;;21.44;62.33;101601.28;6007081;29;20265;-73
2022/08/22 00:49:02;;;;;;;5.47;2.40;;;;;;;21.59;61.81;101601.28;6007159;29;20514;-75
2022/08/22 00:52:54;;;;;;;4.60;3.05;;;;;;;21.47;62.27;101598.13;6007920;29;20238;-74
2022/08/22 00:56:45;;;;;;;6.38;3.72;;;;;;;21.55;61.73;101594.47;6011534;29;20261;-74
2022/08/22 01:00:15;;;;;;;7.82;3.53;;;;;;;21.63;61.68;101597.97;6004852;29;20246;-74
2022/08/22 01:04:16;;;;;;;7.35;2.85;;;;;;;21.62;61.36;101600.88;6003990;29;20242;-73
2022/08/22 01:07:54;;;;;;;5.85;2.85;;;;;;;21.59;61.38;101593.03;6004371;29;20238;-74
2022/08/22 01:11:35;;;;;;;6.28;3.00;;;;;;;21.56;61.56;101586.03;6005375;29;20656;-75
2022/08/22 01:15:01;;;;;;;6.70;2.67;;;;;;;21.53;61.89;101591.06;6006715;29;20588;-74
2022/08/22 01:18:45;;;;;;;7.05;3.50;;;;;;;21.39;62.16;101581.78;6001039;29;20257;-74
2022/08/22 01:22:34;;;;;;;6.95;3.30;;;;;;;21.36;62.54;101587.66;6010255;29;20649;-73
2022/08/22 01:26:34;;;;;;;4.80;3.33;;;;;;;21.56;62.32;101585.16;6003826;29;20251;-73
2022/08/22 01:30:31;;;;;;;6.32;2.92;;;;;;;21.51;62.12;101588.47;6009480;29;20238;-74
2022/08/22 01:34:46;;;;;;;5.20;2.40;;;;;;;21.44;61.97;101587.56;6004578;29;20765;-74
2022/08/22 01:38:22;;;;;;;5.05;3.00;;;;;;;21.42;62.34;101589.63;5996496;29;20522;-74
2022/08/22 01:42:22;;;;;;;8.18;3.28;;;;;;;21.44;62.09;101588.38;6010519;29;20760;-73
2022/08/22 01:46:21;;;;;;;10.15;3.65;;;;;;;21.36;62.69;101585.75;5998808;29;20227;-74
2022/08/22 01:49:48;;;;;;;9.23;3.65;;;;;;;21.38;62.53;101586.41;5954835;29;20242;-74
2022/08/22 01:53:15;;;;;;;8.20;3.40;;;;;;;21.21;63.01;101592.28;6010690;29;20230;-73
2022/08/22 01:56:41;;;;;;;7.43;4.07;;;;;;;21.25;63.47;101593.59;6004822;29;20678;-73
2022/08/22 02:00:14;;;;;;;10.32;3.40;;;;;;;21.36;63.06;101598.63;6009266;29;20270;-73
2022/08/22 02:03:42;;;;;;;5.68;3.10;;;;;;;21.40;62.52;101603.53;6007322;29;20291;-74
2022/08/22 02:07:11;;;;;;;5.13;2.88;;;;;;;21.35;62.68;101602.41;6007040;29;20719;-74
2022/08/22 02:10:53;;;;;;;3.05;2.50;;;;;;;21.33;62.90;101594.38;6001812;29;20804;-73
2022/08/22 02:14:26;;;;;;;7.10;3.28;;;;;;;21.31;62.74;101592.84;6003287;29;20246;-75
2022/08/22 02:18:02;;;;;;;6.95;3.33;;;;;;;21.20;63.10;101591.41;6011614;29;20235;-75
2022/08/22 02:21:32;;;;;;;7.22;3.63;;;;;;;21.24;63.09;101597.38;6009123;29;20264;-74
2022/08/22 02:25:05;;;;;;;8.52;3.78;;;;;;;21.06;63.88;101595.00;6006760;29;20253;-74
2022/08/22 02:28:37;;;;;;;7.40;3.30;;;;;;;21.15;63.37;101598.50;6008834;29;20343;-74
2022/08/22 02:32:06;;;;;;;6.90;2.92;;;;;;;21.16;63.71;101601.06;6006481;29;20577;-74
2022/08/22 02:35:32;;;;;;;5.38;3.42;;;;;;;21.16;63.71;101605.69;5999605;29;20230;-74
2022/08/22 02:39:03;;;;;;;9.43;4.15;;;;;;;21.18;63.56;101595.38;6010440;29;20876;-74
2022/08/22 02:42:34;;;;;;;6.65;2.95;;;;;;;21.18;63.23;101600.84;6005439;29;20324;-74
2022/08/22 02:46:02;;;;;;;7.40;3.35;;;;;;;21.11;63.33;101594.44;6012126;29;20582;-74
2022/08/22 02:49:30;;;;;;;5.90;2.70;;;;;;;21.05;63.66;101586.97;6008057;29;20250;-74
2022/08/22 02:52:58;;;;;;;4.80;2.40;;;;;;;21.11;63.49;101594.44;6010739;29;20238;-74
2022/08/22 02:56:27;;;;;;;6.97;3.15;;;;;;;21.06;63.93;101596.88;6011274;29;20234;-73
2022/08/22 03:00:16;;;;;;;6.20;3.28;;;;;;;20.97;64.27;101595.22;6009099;29;20628;-74
2022/08/22 03:03:40;;;;;;;10.32;3.92;;;;;;;21.01;63.91;101593.78;6006624;29;20242;-73
2022/08/22 03:07:08;;;;;;;8.48;3.85;;;;;;;21.08;63.31;101594.81;6009005;29;20266;-73
2022/08/22 03:10:35;;;;;;;10.52;4.20;;;;;;;21.08;63.71;101592.91;6008508;29;20234;-74
2022/08/22 03:14:06;;;;;;;7.90;4.13;;;;;;;21.12;64.22;101590.66;6008058;29;20230;-74
2022/08/22 03:17:33;;;;;;;11.57;5.57;;;;;;;21.13;63.56;101586.88;6008515;29;20238;-74
2022/08/22 03:21:11;;;;;;;14.23;10.13;;;;;;;21.20;63.50;101596.03;6011026;29;20230;-75
2022/08/22 03:24:38;;;;;;;9.70;5.13;;;;;;;21.26;62.84;101581.56;6003425;29;20495;-75
2022/08/22 03:28:03;;;;;;;10.07;4.40;;;;;;;21.33;62.93;101585.28;6017816;29;20243;-73
2022/08/22 03:31:25;;;;;;;10.10;4.90;;;;;;;21.18;63.60;101595.38;6009153;29;20326;-74
2022/08/22 03:35:00;;;;;;;8.70;5.30;;;;;;;21.14;63.49;101591.31;6006412;29;20230;-74
2022/08/22 03:38:26;;;;;;;7.65;4.88;;;;;;;21.08;64.07;101594.81;6009995;29;20235;-74
2022/08/22 03:42:03;;;;;;;7.35;3.80;;;;;;;21.15;63.67;101593.84;6008494;29;20250;-75
2022/08/22 03:45:53;;;;;;;8.48;3.88;;;;;;;21.10;63.82;101598.22;6007017;29;20664;-75
2022/08/22 03:49:47;;;;;;;5.70;3.92;;;;;;;21.06;63.79;101603.22;6011241;29;20235;-74
2022/08/22 03:53:41;;;;;;;8.63;3.60;;;;;;;20.90;64.88;101606.09;6014053;29;20616;-74
2022/08/22 03:57:36;;;;;;;11.57;8.63;;;;;;;20.86;64.45;101604.72;6007803;29;20350;-73
2022/08/22 04:01:18;;;;;;;15.70;13.40;;;;;;;20.79;65.15;101600.19;6008209;29;20275;-74
2022/08/22 04:05:07;;;;;;;24.05;21.23;;;;;;;20.74;64.96;101598.00;6009326;29;20235;-74
2022/08/22 04:08:53;;;;;;;18.75;16.90;;;;;;;20.71;65.46;101610.16;6006388;29;20274;-75
2022/08/22 04:12:39;;;;;;;12.07;10.90;;;;;;;20.88;64.90;101601.81;6006815;29;20815;-73
2022/08/22 04:16:19;;;;;;;18.30;13.45;;;;;;;20.83;64.68;101610.59;6007618;29;20294;-74
2022/08/22 04:20:06;;;;;;;9.68;5.75;;;;;;;20.84;65.25;101611.47;6009889;29;20314;-74
2022/08/22 04:23:43;;;;;;;6.65;4.45;;;;;;;20.80;65.44;101619.19;6009826;29;20234;-73
2022/08/22 04:27:12;;;;;;;6.85;5.38;;;;;;;20.75;65.25;101618.91;6006702;29;20250;-73
2022/08/22 04:30:39;;;;;;;6.25;4.00;;;;;;;20.63;65.96;101618.47;6011003;29;20238;-74
2022/08/22 04:34:05;;;;;;;7.43;3.13;;;;;;;20.68;65.57;101612.44;6011554;29;20234;-74
2022/08/22 04:37:36;;;;;;;7.35;4.65;;;;;;;20.73;65.68;101623.72;6010837;29;20830;-74
2022/08/22 04:41:05;;;;;;;9.73;3.90;;;;;;;20.73;66.04;101625.59;6014612;29;20324;-75
2022/08/22 04:44:33;;;;;;;13.18;5.93;;;;;;;20.76;65.82;101630.72;6004071;29;20679;-75
2022/08/22 04:48:00;;;;;;;6.95;4.00;;;;;;;20.95;65.22;101631.03;6011815;29;20351;-74
2022/08/22 04:51:27;;;;;;;8.93;3.53;;;;;;;20.94;65.30;101629.34;6006771;29;20239;-72
2022/08/22 04:54:59;;;;;;;6.53;3.63;;;;;;;21.01;64.82;101626.69;6011763;29;20254;-74
2022/08/22 04:58:54;;;;;;;13.27;8.32;;;;;;;20.99;64.92;101628.78;6014617;29;20226;-75
2022/08/22 05:02:21;;;;;;;12.00;9.88;;;;;;;20.95;65.15;101630.19;6001563;29;20238;-75
2022/08/22 05:05:44;;;;;;;9.90;6.55;;;;;;;20.99;65.10;101628.78;6014066;29;20567;-74
2022/08/22 05:09:11;;;;;;;9.98;5.70;;;;;;;20.95;65.42;101631.03;6009222;29;20529;-75
2022/08/22 05:12:36;;;;;;;10.95;4.10;;;;;;;20.99;65.02;101635.13;6006761;29;20231;-74
2022/08/22 05:16:05;;;;;;;5.65;3.50;;;;;;;20.84;65.64;101645.19;6023138;29;20238;-74
2022/08/22 05:19:30;;;;;;;6.05;3.33;;;;;;;20.76;65.71;101650.72;6010360;29;20233;-74
2022/08/22 05:22:56;;;;;;;7.03;3.28;;;;;;;20.96;65.40;101635.50;6016789;29;20234;-74
2022/08/22 05:26:18;;;;;;;6.82;4.55;;;;;;;21.10;64.76;101639.34;6013917;29;20242;-75
2022/08/22 05:29:45;;;;;;;9.65;3.88;;;;;;;21.18;64.85;101644.75;6009198;29;20239;-75
2022/08/22 05:33:24;;;;;;;8.05;2.95;;;;;;;21.28;64.56;101645.31;6012285;29;20262;-75
2022/08/22 05:36:50;;;;;;;7.60;2.95;;;;;;;21.25;64.84;101648.47;6002249;29;20250;-75
2022/08/22 05:40:17;;;;;;;6.60;3.45;;;;;;;21.17;64.61;101645.78;6002034;29;20317;-75
2022/08/22 05:43:41;;;;;;;7.78;4.03;;;;;;;21.06;65.44;101643.50;6003164;29;20250;-75
2022/08/22 05:47:12;;;;;;;6.68;3.10;;;;;;;21.39;64.34;101647.63;6000754;29;20239;-73
2022/08/22 05:50:39;;;;;;;8.45;3.22;;;;;;;21.42;64.30;101644.50;6001986;29;20235;-72
2022/08/22 05:54:10;;;;;;;9.38;4.75;;;;;;;21.56;63.80;101653.78;6002337;29;20231;-73
2022/08/22 05:57:35;;;;;;;6.45;4.00;;;;;;;21.59;63.94;101653.41;6007453;29;20234;-73
2022/08/22 06:01:06;;;;;;;7.40;3.55;;;;;;;21.62;63.94;101673.09;5988057;29;20261;-75
2022/08/22 06:04:33;;;;;;;8.20;3.95;;;;;;;21.58;63.97;101665.41;6001887;29;20975;-74
2022/08/22 06:08:03;;;;;;;5.85;3.25;;;;;;;21.53;63.77;101671.47;6009099;29;20235;-70
2022/08/22 06:11:29;;;;;;;8.43;3.75;;;;;;;21.42;64.26;101667.28;6007022;29;20503;-75
2022/08/22 06:15:00;;;;;;;8.18;3.60;;;;;;;21.52;64.79;101671.66;5994518;29;20632;-75
2022/08/22 06:18:25;;;;;;;13.02;11.13;;;;;;;21.73;63.51;101667.16;6012473;29;20235;-76
2022/08/22 06:21:50;;;;;;;11.32;8.77;;;;;;;21.75;63.48;101672.44;6009847;29;20369;-73
2022/08/22 06:25:18;;;;;;;9.57;7.57;;;;;;;21.74;64.14;101671.56;6016974;29;20238;-75
2022/08/22 06:28:43;;;;;;;12.80;8.48;;;;;;;21.78;64.04;101683.06;6009456;29;20237;-74
2022/08/22 06:32:12;;;;;;;10.68;4.82;;;;;;;21.87;64.01;101682.78;6010016;29;20613;-73
2022/08/22 06:39:17;;;;;;;6.35;4.55;;;;;;;21.74;64.53;101681.69;6015765;29;20246;-75
2022/08/22 06:42:43;;;;;;;6.95;4.20;;;;;;;21.95;63.38;101688.19;6018386;29;20266;-74
2022/08/22 06:46:05;;;;;;;9.20;4.95;;;;;;;21.90;64.21;101690.66;6015873;29;20226;-73
2022/08/22 06:49:28;;;;;;;5.82;4.47;;;;;;;22.13;63.20;101682.31;6002516;29;20242;-72
2022/08/22 06:52:51;;;;;;;6.35;4.72;;;;;;;;;;6002093;29;20313;-71
2022/08/22 06:56:19;;;;;;;7.10;3.47;;;;;;;22.34;63.14;101689.75;6010239;29;20247;-72
2022/08/22 06:59:43;;;;;;;8.55;3.70;;;;;;;22.43;63.38;101688.56;6004015;29;20774;-73
2022/08/22 07:03:10;;;;;;;5.35;3.15;;;;;;;22.76;63.21;101700.84;6011937;29;20230;-72
2022/08/22 07:06:35;;;;;;;10.23;4.70;;;;;;;22.75;61.95;101694.47;6006301;29;20243;-72
2022/08/22 07:09:56;;;;;;;8.20;4.43;;;;;;;22.89;61.48;101703.72;6011315;29;20239;-72
2022/08/22 07:13:20;;;;;;;9.88;7.18;;;;;;;22.93;61.63;101700.38;6008042;29;20969;-72
2022/08/22 07:16:46;;;;;;;5.78;4.03;;;;;;;22.99;61.17;101709.72;6005670;29;20329;-69
2022/08/22 07:20:21;;;;;;;7.65;3.80;;;;;;;23.07;61.32;101720.63;6000329;29;20234;-70
2022/08/22 07:23:46;;;;;;;6.22;3.95;;;;;;;23.05;60.87;101711.72;6008854;29;20242;-69
2022/08/22 07:27:19;;;;;;;8.65;3.10;;;;;;;23.36;60.65;101728.75;6011597;29;20242;-72
2022/08/22 07:30:52;;;;;;;8.75;3.55;;;;;;;23.34;60.04;101713.50;6008480;29;20968;-69
2022/08/22 07:34:27;;;;;;;4.18;2.67;;;;;;;23.30;60.86;101717.66;6006453;29;20234;-68
2022/08/22 07:37:57;;;;;;;7.30;3.00;;;;;;;23.32;60.28;101721.91;6005622;29;20247;-68
2022/08/22 07:41:22;;;;;;;8.07;4.68;;;;;;;23.21;61.13;101721.59;6008964;29;20636;-70
2022/08/22 07:45:01;;;;;;;5.72;2.80;;;;;;;23.40;60.49;101726.44;6006199;29;20258;-68
2022/08/22 07:48:27;;;;;;;7.90;4.13;;;;;;;23.30;61.03;101723.16;5999356;29;20238;-69
2022/08/22 07:51:53;;;;;;;9.70;3.92;;;;;;;23.48;60.07;101723.53;6001330;29;20238;-72
2022/08/22 07:55:18;;;;;;;6.25;2.90;;;;;;;23.68;60.15;101728.16;6011197;29;20676;-69
2022/08/22 07:58:42;;;;;;;4.90;2.92;;;;;;;23.96;59.48;101724.50;6008127;29;20230;-69
2022/08/22 08:02:10;;;;;;;7.20;2.50;;;;;;;24.15;58.57;101723.81;6002100;29;20234;-68
2022/08/22 08:05:35;;;;;;;6.25;3.30;;;;;;;24.25;58.01;101724.28;6008726;29;20301;-69
2022/08/22 08:08:58;;;;;;;10.80;6.45;;;;;;;23.55;59.18;101717.03;6002088;29;20239;-71
2022/08/22 08:12:28;;;;;;;6.00;3.13;;;;;;;23.10;61.11;101722.97;6001821;29;20238;-72
2022/08/22 08:15:50;;;;;;;6.30;3.15;;;;;;;23.59;60.42;101715.56;6006895;29;20230;-70
2022/08/22 08:19:15;;;;;;;8.77;3.47;;;;;;;23.66;60.42;101718.38;6007815;29;20234;-70
2022/08/22 08:22:38;;;;;;;5.78;2.70;;;;;;;23.99;59.60;101718.63;6010004;29;20235;-69
2022/08/22 08:26:07;;;;;;;7.47;3.35;;;;;;;23.99;58.63;101710.34;6006854;29;20235;-70
2022/08/22 08:29:27;;;;;;;13.05;3.97;;;;;;;24.19;57.74;101712.19;6006828;29;20624;-68
2022/08/22 08:32:52;;;;;;;6.05;3.20;;;;;;;24.39;58.01;101713.13;6006191;29;20316;-66
2022/08/22 08:36:31;;;;;;;6.90;3.17;;;;;;;24.74;56.98;101710.31;6005484;29;20337;-68
2022/08/22 08:39:56;;;;;;;3.00;2.33;;;;;;;24.61;57.16;101705.56;6004754;29;20326;-68
2022/08/22 08:43:28;;;;;;;7.25;2.83;;;;;;;24.91;56.60;101697.81;6003282;29;20238;-71
2022/08/22 08:47:13;;;;;;;5.97;2.55;;;;;;;25.09;57.73;101692.53;6008071;29;20230;-67
2022/08/22 08:50:49;;;;;;;4.70;2.40;;;;;;;24.96;55.50;101700.78;6007832;29;20538;-67
2022/08/22 08:54:31;;;;;;;4.32;2.28;;;;;;;24.89;55.14;101703.53;6008272;29;20234;-68
2022/08/22 08:58:12;;;;;;;6.30;3.33;;;;;;;24.91;54.93;101698.66;6011238;29;20234;-69
2022/08/22 09:01:52;;;;;;;4.18;2.22;;;;;;;24.90;54.15;101696.97;6005390;29;20708;-67
2022/08/22 09:05:40;;;;;;;8.93;3.80;;;;;;;25.35;53.72;101690.63;6006112;29;20262;-67
2022/08/22 09:09:24;;;;;;;7.35;3.63;;;;;;;25.59;52.92;101689.16;6007298;29;20238;-70
2022/08/22 09:13:05;;;;;;;7.00;3.40;;;;;;;25.18;52.10;101694.00;6005602;29;20261;-68
2022/08/22 09:16:58;;;;;;;10.45;6.65;;;;;;;25.65;51.62;101681.91;6001593;29;20497;-70
2022/08/22 09:20:35;;;;;;;6.90;3.53;;;;;;;25.25;51.96;101690.19;6007867;29;20239;-68
2022/08/22 09:24:31;;;;;;;9.80;3.00;;;;;;;25.62;52.96;101683.19;6011024;29;20300;-68
2022/08/22 09:27:59;;;;;;;8.77;3.22;;;;;;;25.95;51.55;101680.38;5998576;29;20528;-69
2022/08/22 09:31:35;;;;;;;8.60;2.92;;;;;;;26.10;50.42;101679.06;6001419;29;20568;-67
2022/08/22 09:35:08;;;;;;;8.30;2.75;;;;;;;25.93;48.53;101672.28;6001799;29;20238;-67
2022/08/22 09:38:42;;;;;;;5.72;2.47;;;;;;;25.79;50.03;101653.19;6011212;29;20234;-68
2022/08/22 09:42:14;;;;;;;6.43;3.28;;;;;;;25.55;51.55;101667.69;6000150;29;20604;-67
2022/08/22 09:45:45;;;;;;;4.00;2.83;;;;;;;25.43;50.68;101666.66;6007128;29;20345;-67
2022/08/22 09:49:12;;;;;;;4.85;2.28;;;;;;;25.96;50.25;101663.56;6009537;29;20238;-67
2022/08/22 09:52:53;;;;;;;6.47;3.13;;;;;;;26.07;46.77;101659.25;6003586;29;20325;-66
2022/08/22 09:56:23;;;;;;;4.65;1.90;;;;;;;26.70;45.49;101649.19;6015038;29;20238;-67
2022/08/22 09:59:58;;;;;;;5.95;1.90;;;;;;;26.97;44.61;101647.97;6014681;29;20230;-67
2022/08/22 10:03:46;;;;;;;7.95;3.22;;;;;;;26.91;45.20;101657.16;6013970;29;20238;-67
2022/08/22 10:07:23;;;;;;;10.77;9.70;;;;;;;26.85;46.69;101653.34;6010889;29;20354;-66
2022/08/22 10:10:57;;;;;;;5.38;2.63;;;;;;;27.03;45.78;101649.81;6003827;29;20321;-66
2022/08/22 10:14:22;;;;;;;3.95;2.22;;;;;;;26.40;43.93;101643.41;6015174;29;20238;-67
2022/08/22 10:17:57;;;;;;;4.82;2.05;;;;;;;25.42;45.95;101642.84;6012750;29;20230;-67
2022/08/22 10:21:25;;;;;;;5.50;2.38;;;;;;;25.13;48.50;101647.75;6012413;29;20242;-67
2022/08/22 10:24:58;;;;;;;3.53;2.15;;;;;;;26.19;46.29;101640.94;6016734;29;20332;-66
2022/08/22 10:28:33;;;;;;;4.03;2.13;;;;;;;26.35;46.70;101636.84;6000098;29;20262;-66
2022/08/22 10:31:58;;;;;;;5.38;2.63;;;;;;;27.06;45.09;101637.47;5998031;29;20274;-67
2022/08/22 10:35:27;;;;;;;4.75;2.17;;;;;;;27.50;43.85;101642.81;6019510;29;20231;-68
2022/08/22 10:38:52;;;;;;;5.22;2.10;;;;;;;27.91;42.39;101639.38;6018754;29;20229;-66
2022/08/22 10:42:26;;;;;;;3.20;1.30;;;;;;;27.66;41.05;101640.28;6020696;29;20824;-67
2022/08/22 10:46:00;;;;;;;5.38;2.38;;;;;;;27.51;42.88;101637.06;6014334;29;20243;-69
2022/08/22 10:49:27;;;;;;;4.18;1.80;;;;;;;28.02;42.00;101630.31;6017171;29;20604;-68
2022/08/22 10:53:28;;;;;;;6.20;2.42;;;;;;;26.28;44.22;101625.81;6016521;29;20654;-68
2022/08/22 10:56:38;;;;;;;3.83;2.38;;;;;;;27.04;43.76;101623.81;6014898;29;20625;-68
2022/08/22 11:00:09;;;;;;;3.45;2.10;;;;;;;27.70;42.77;101635.97;6008612;29;20242;-67
2022/08/22 11:03:40;;;;;;;4.72;2.03;;;;;;;28.22;42.00;101631.78;6018042;29;20230;-67
2022/08/22 11:07:16;;;;;;;9.48;4.53;;;;;;;28.37;40.46;101626.63;6012868;29;20234;-66
2022/08/22 11:10:55;;;;;;;3.80;2.17;;;;;;;28.06;40.98;101626.84;6012854;29;20238;-67
2022/08/22 11:14:37;;;;;;;3.85;2.60;;;;;;;27.95;38.98;101624.84;6011293;29;20238;-67
2022/08/22 11:18:20;;;;;;;6.38;2.17;;;;;;;27.36;41.26;101630.16;6014359;29;20243;-66
2022/08/22 11:21:52;;;;;;;4.97;2.25;;;;;;;28.69;40.82;101629.19;6010408;29;20234;-65
2022/08/22 11:25:43;;;;;;;3.65;1.95;;;;;;;29.23;37.96;101624.25;6002436;29;20265;-66
2022/08/22 11:29:24;;;;;;;3.75;2.00;;;;;;;30.00;37.92;101617.44;6011807;29;20235;-68
2022/08/22 11:33:20;;;;;;;3.47;2.55;;;;;;;30.32;35.95;101617.84;6005811;29;22108;-66
2022/08/22 11:36:50;;;;;;;6.45;2.28;;;;;;;30.25;35.27;101621.84;6013496;29;20233;-66
2022/08/22 11:40:32;;;;;;;4.25;2.80;;;;;;;30.96;34.20;101608.19;6011266;29;21590;-66
2022/08/22 11:44:01;;;;;;;4.93;2.33;;;;;;;30.58;35.53;101608.88;6010876;29;20231;-66
2022/08/22 11:47:24;;;;;;;5.55;2.33;;;;;;;29.37;36.89;101608.22;6008396;29;20234;-66
2022/08/22 11:50:50;;;;;;;4.40;3.13;;;;;;;30.28;38.82;101601.88;6012888;29;20238;-66
2022/08/22 11:54:24;;;;;;;3.42;2.20;;;;;;;33.02;32.85;101605.38;6001563;29;20238;-67
2022/08/22 11:57:48;;;;;;;3.53;1.83;;;;;;;35.67;27.62;101607.69;6013814;29;20277;-68
2022/08/22 12:01:14;;;;;;;3.83;1.95;;;;;;;36.45;26.50;101589.09;6002922;29;20435;-68
2022/08/22 12:04:40;;;;;;;2.75;2.00;;;;;;;36.64;26.91;101596.56;6010349;29;20254;-67
2022/08/22 12:08:09;;;;;;;5.95;2.38;;;;;;;39.49;22.69;101595.19;6011407;29;20230;-69
2022/08/22 12:11:43;;;;;;;5.47;2.33;;;;;;;40.89;21.99;101590.44;6013472;29;20518;-69
2022/08/22 12:15:14;;;;;;;4.30;2.15;;;;;;;40.54;21.86;101596.97;6010476;29;20319;-68
2022/08/22 12:18:57;;;;;;;4.43;2.03;;;;;;;41.39;21.53;101594.81;6003661;29;20234;-69
2022/08/22 12:22:47;;;;;;;4.72;1.80;;;;;;;42.23;20.90;101590.97;6006800;29;20234;-70
2022/08/22 12:26:17;;;;;;;3.25;1.77;;;;;;;38.47;24.09;101597.16;6002714;29;20514;-68
2022/08/22 12:29:48;;;;;;;4.60;4.20;;;;;;;41.16;21.45;101586.66;6000952;29;20333;-68
2022/08/22 12:33:27;;;;;;;3.80;2.85;;;;;;;40.50;21.73;101582.63;5996153;29;20238;-70
2022/08/22 12:37:12;;;;;;;6.13;1.75;;;;;;;41.25;20.77;101581.91;6001531;29;20234;-70
2022/08/22 12:40:46;;;;;;;2.40;2.13;;;;;;;38.49;24.38;101571.50;5999877;29;20230;-70
2022/08/22 12:44:23;;;;;;;5.50;3.50;;;;;;;34.28;29.47;101574.50;5999071;29;20329;-64
2022/08/22 12:48:02;;;;;;;4.60;2.63;;;;;;;34.54;29.37;101573.47;5998156;29;20518;-65
2022/08/22 12:51:30;;;;;;;2.95;1.70;;;;;;;34.78;25.72;101569.00;5980499;29;20235;-64
2022/08/22 12:55:22;;;;;;;4.63;1.65;;;;;;;35.71;26.77;101563.88;5991373;29;20246;-65
2022/08/22 12:59:21;;;;;;;3.00;2.20;;;;;;;33.27;29.80;101560.00;6004495;29;20231;-67
2022/08/22 13:02:43;;;;;;;3.00;1.63;;;;;;;32.57;32.04;101564.97;6001911;29;20309;-65
2022/08/22 13:06:22;;;;;;;5.30;2.65;;;;;;;31.30;34.11;101564.44;6010705;29;20246;-65
2022/08/22 13:09:49;;;;;;;5.25;2.58;;;;;;;29.81;37.11;101563.06;6013979;29;20234;-66
2022/08/22 13:13:14;;;;;;;3.28;1.77;;;;;;;30.06;37.10;101561.91;6017644;29;20238;-64
2022/08/22 13:16:38;;;;;;;4.03;2.00;;;;;;;29.71;36.96;101565.59;6016484;29;20569;-65
2022/08/22 13:20:07;;;;;;;4.03;2.72;;;;;;;32.92;30.79;101563.34;6012404;29;20238;-65
2022/08/22 13:23:33;;;;;;;8.82;2.78;;;;;;;36.20;26.18;101559.16;6018462;29;20364;-64
2022/08/22 13:26:58;;;;;;;2.88;1.75;;;;;;;38.77;23.91;101550.75;6014540;29;20242;-64
2022/08/22 13:30:22;;;;;;;3.03;1.70;;;;;;;37.88;24.55;101554.59;6009992;29;20238;-65
2022/08/22 13:33:46;;;;;;;5.28;1.92;;;;;;;32.59;31.02;101546.84;6016293;29;20235;-64
2022/08/22 13:37:13;;;;;;;3.42;1.90;;;;;;;30.82;35.19;101553.91;6015026;29;20230;-64
2022/08/22 13:40:37;;;;;;;4.72;1.83;;;;;;;30.17;36.20;101549.88;6015275;29;20648;-65
2022/08/22 13:44:19;;;;;;;4.68;2.03;;;;;;;29.63;37.07;101552.09;6012761;29;20506;-64
2022/08/22 13:47:50;;;;;;;4.00;2.10;;;;;;;29.29;38.10;101547.41;6014541;29;20258;-66
2022/08/22 13:51:16;;;;;;;2.83;1.92;;;;;;;28.67;38.57;101551.72;6008701;29;20561;-66
2022/08/22 13:54:53;;;;;;;2.95;1.80;;;;;;;28.76;38.41;101544.75;6008488;29;20238;-64
2022/08/22 13:58:29;;;;;;;3.25;1.90;;;;;;;28.92;38.13;101534.84;6009020;29;20280;-65
2022/08/22 14:01:55;;;;;;;3.70;1.92;;;;;;;28.98;37.80;101536.66;5996445;29;20669;-64
2022/08/22 14:05:23;;;;;;;2.10;1.80;;;;;;;28.69;38.24;101537.59;6003173;29;20325;-64
2022/08/22 14:08:45;;;;;;;5.38;1.85;;;;;;;29.19;35.50;101544.41;5999107;29;20234;-64
2022/08/22 14:12:12;;;;;;;4.28;1.48;;;;;;;29.49;36.37;101533.16;6002872;29;20234;-64
2022/08/22 14:15:36;;;;;;;4.43;2.05;;;;;;;28.79;34.75;101535.09;6009305;29;21180;-63
2022/08/22 14:19:03;;;;;;;3.70;1.70;;;;;;;28.86;36.82;101531.09;6008475;29;20574;-63
2022/08/22 14:22:28;;;;;;;2.22;1.85;;;;;;;28.91;37.16;101536.78;5999412;29;20783;-65
2022/08/22 14:25:49;;;;;;;2.83;1.67;;;;;;;28.90;37.85;101534.22;5992699;29;20533;-66
2022/08/22 14:29:14;;;;;;;4.97;2.05;;;;;;;29.13;37.79;101531.47;6005116;29;20242;-65
2022/08/22 14:32:43;;;;;;;3.38;1.88;;;;;;;30.18;36.06;101534.88;6007582;29;20313;-66
2022/08/22 14:36:15;;;;;;;3.92;1.83;;;;;;;31.40;34.47;101522.78;6013189;29;20632;-66
2022/08/22 14:39:40;;;;;;;2.67;1.85;;;;;;;32.02;32.92;101513.00;6008685;29;20234;-66
2022/08/22 14:43:07;;;;;;;4.20;1.80;;;;;;;31.96;32.90;101518.81;6013977;29;20329;-66
2022/08/22 14:46:43;;;;;;;3.25;1.45;;;;;;;31.54;33.82;101513.78;6013598;29;20243;-66
2022/08/22 14:50:09;;;;;;;6.70;2.10;;;;;;;31.24;34.83;101507.78;6012352;29;20609;-65
2022/08/22 14:53:33;;;;;;;5.82;2.28;;;;;;;30.42;35.12;101514.19;6008320;29;20238;-66
2022/08/22 14:56:55;;;;;;;3.58;2.38;;;;;;;29.43;36.87;101507.19;6002817;29;20275;-66
2022/08/22 15:00:27;;;;;;;3.38;1.98;;;;;;;29.18;38.19;101498.28;6014418;29;20261;-65
2022/08/22 15:03:53;;;;;;;3.38;2.05;;;;;;;29.02;38.36;101502.59;6012219;29;20238;-66
2022/08/22 15:07:22;;;;;;;5.10;2.35;;;;;;;28.59;39.40;101498.47;6014376;29;20242;-66
2022/08/22 15:10:44;;;;;;;4.85;2.53;;;;;;;28.67;40.25;101506.44;6013702;29;20632;-67
2022/08/22 15:14:10;;;;;;;3.92;2.28;;;;;;;28.74;40.07;101504.41;6013250;29;20235;-66
2022/08/22 15:17:38;;;;;;;3.25;2.25;;;;;;;28.87;40.05;101498.63;6011440;29;20333;-66
2022/08/22 15:21:03;;;;;;;3.28;1.90;;;;;;;28.70;39.92;101501.28;6013294;29;20230;-67
2022/08/22 15:24:25;;;;;;;4.32;1.63;;;;;;;28.44;40.59;101499.75;6010635;29;20230;-67
2022/08/22 15:27:49;;;;;;;3.42;1.85;;;;;;;27.94;41.26;101505.81;6015405;29;20930;-66
2022/08/22 15:31:15;;;;;;;4.07;2.00;;;;;;;27.41;42.47;101506.50;6011547;29;20246;-67
2022/08/22 15:34:40;;;;;;;3.97;2.03;;;;;;;27.40;42.47;101507.59;6010648;29;20325;-66
2022/08/22 15:38:06;;;;;;;2.83;2.33;;;;;;;27.43;42.96;101506.31;6016555;29;20243;-67
2022/08/22 15:41:43;;;;;;;3.50;2.42;;;;;;;27.72;42.65;101504.66;6005592;29;20238;-67
2022/08/22 15:45:06;;;;;;;6.22;4.22;;;;;;;27.52;43.27;101496.56;6012260;29;20234;-66
2022/08/22 15:48:35;;;;;;;5.82;3.97;;;;;;;27.46;43.09;101500.28;6012741;29;20238;-67
2022/08/22 15:52:13;;;;;;;5.13;3.15;;;;;;;28.49;40.95;101490.72;6009731;29;20234;-67
2022/08/22 15:55:35;;;;;;;3.95;2.22;;;;;;;28.43;40.52;101484.19;6009014;29;20238;-66
2022/08/22 15:59:24;;;;;;;2.33;2.10;;;;;;;28.53;41.21;101491.94;6013936;29;20239;-66
2022/08/22 16:02:57;;;;;;;5.85;2.58;;;;;;;28.90;40.91;101487.03;6009409;29;20250;-66
2022/08/22 16:06:44;;;;;;;5.28;2.25;;;;;;;28.20;42.09;101483.31;6007117;29;20372;-66
2022/08/22 16:10:27;;;;;;;3.08;2.10;;;;;;;27.67;44.00;101481.25;6010275;29;20230;-66
2022/08/22 16:14:16;;;;;;;2.97;2.10;;;;;;;27.34;44.24;101475.28;6012358;29;20239;-66
2022/08/22 16:17:47;;;;;;;2.80;1.90;;;;;;;27.07;45.06;101479.41;6008538;29;20234;-66
2022/08/22 16:21:10;;;;;;;3.15;1.90;;;;;;;26.92;45.79;101477.00;6008233;29;20234;-66
2022/08/22 16:24:32;;;;;;;3.33;2.60;;;;;;;27.03;45.41;101478.16;6004921;29;20242;-66
2022/08/22 16:27:55;;;;;;;6.18;3.33;;;;;;;27.34;44.36;101479.94;5994371;29;20238;-65
2022/08/22 16:31:22;;;;;;;6.93;2.63;;;;;;;27.36;44.79;101472.28;5997038;29;20657;-66